Time;durP1;ratioP1;P1;durP2;ratioP2;P2;SDS_P1;SDS_P2;PMS_P1;PMS_P2;Temp;Humidity;BMP_temperature;BMP_pressure;BME280_temperature;BME280_humidity;BME280_pressure;Samples;Min_cycle;Max_cycle;Signal;HPM_P1;HPM_P2
2024/04/14 00:00:56;;;;;;;53.47;38.67;;;;;;;;;;5417648;26;19999;-67
2024/04/14 00:03:22;;;;;;;37.53;28.35;;;;;;;;;;5415545;26;20004;-67
2024/04/14 00:05:48;;;;;;;34.58;27.88;;;;;;;;;;5417484;26;20076;-67
2024/04/14 00:08:15;;;;;;;37.85;28.48;;;;;;;;;;5415585;26;20004;-67
2024/04/14 00:10:42;;;;;;;32.53;26.27;;;;;;;;;;5417381;26;20358;-67
2024/04/14 00:13:08;;;;;;;41.97;30.85;;;;;;;;;;5417691;26;20003;-67
2024/04/14 00:15:34;;;;;;;50.90;39.30;;;;;;;;;;5417003;26;20040;-67
2024/04/14 00:18:00;;;;;;;36.85;28.60;;;;;;;;;;5417548;26;20011;-67
2024/04/14 00:20:26;;;;;;;32.47;25.27;;;;;;;;;;5417628;26;20014;-67
2024/04/14 00:22:52;;;;;;;27.23;22.15;;;;;;;;;;5396404;26;20000;-67
2024/04/14 00:25:18;;;;;;;29.13;21.92;;;;;;;;;;5414401;26;20004;-67
2024/04/14 00:27:45;;;;;;;34.38;25.05;;;;;;;;;;5415638;26;20011;-67
2024/04/14 00:30:11;;;;;;;29.20;21.80;;;;;;;;;;5416716;26;20000;-67
2024/04/14 00:32:37;;;;;;;33.85;22.98;;;;;;;;;;5415429;26;20003;-67
2024/04/14 00:35:03;;;;;;;38.90;29.52;;;;;;;;;;5416840;26;20004;-67
2024/04/14 00:37:29;;;;;;;32.70;25.25;;;;;;;;;;5417081;26;20036;-67
2024/04/14 00:39:55;;;;;;;29.52;23.75;;;;;;;;;;5417144;26;20011;-67
2024/04/14 00:42:21;;;;;;;33.42;26.38;;;;;;;;;;5417362;26;20003;-67
2024/04/14 00:44:47;;;;;;;66.90;50.05;;;;;;;;;;5416974;26;20003;-67
2024/04/14 00:47:16;;;;;;;37.75;33.08;;;;;;;;;;5417032;26;20037;-67
2024/04/14 00:49:42;;;;;;;41.50;33.28;;;;;;;;;;5414833;26;20032;-67
2024/04/14 00:52:09;;;;;;;35.15;26.75;;;;;;;;;;5416845;26;20042;-67
2024/04/14 00:54:36;;;;;;;30.63;22.60;;;;;;;;;;5414920;26;20019;-66
2024/04/14 01:03:10;;;;;;;28.00;21.10;;;;;;;;;;5400991;26;20010;-66
2024/04/14 01:05:36;;;;;;;26.38;21.40;;;;;;;;;;5415983;26;20004;-66
2024/04/14 01:08:02;;;;;;;28.50;21.70;;;;;;;;;;5416059;26;20018;-66
2024/04/14 01:10:29;;;;;;;24.48;20.67;;;;;;;;;;5416459;26;20000;-66
2024/04/14 01:12:55;;;;;;;30.40;21.50;;;;;;;;;;5414360;26;20464;-66
2024/04/14 01:15:21;;;;;;;23.45;20.15;;;;;;;;;;5415053;26;20011;-66
2024/04/14 01:17:47;;;;;;;28.58;19.90;;;;;;;;;;5415501;26;20068;-66
2024/04/14 01:20:14;;;;;;;22.75;20.38;;;;;;;;;;5415523;26;20003;-66
2024/04/14 01:22:40;;;;;;;25.52;20.88;;;;;;;;;;5415627;26;20031;-66
2024/04/14 01:25:09;;;;;;;22.85;19.40;;;;;;;;;;5415675;26;20318;-66
2024/04/14 01:27:36;;;;;;;24.10;19.63;;;;;;;;;;5414954;26;20003;-67
2024/04/14 01:30:05;;;;;;;28.15;19.88;;;;;;;;;;5413373;26;20015;-67
2024/04/14 01:32:37;;;;;;;22.77;19.92;;;;;;;;;;5415237;26;20019;-67
2024/04/14 01:35:03;;;;;;;25.73;19.67;;;;;;;;;;5410047;26;20077;-67
2024/04/14 01:37:29;;;;;;;22.70;19.38;;;;;;;;;;5396360;26;20031;-67
2024/04/14 01:39:55;;;;;;;25.58;20.63;;;;;;;;;;5415440;26;20004;-67
2024/04/14 01:42:23;;;;;;;22.73;18.45;;;;;;;;;;5415112;26;20018;-67
2024/04/14 01:44:49;;;;;;;22.15;19.75;;;;;;;;;;5415471;26;20011;-67
2024/04/14 01:47:15;;;;;;;22.08;19.58;;;;;;;;;;5413525;26;20000;-67
2024/04/14 01:49:41;;;;;;;22.35;19.95;;;;;;;;;;5415467;26;20014;-67
2024/04/14 01:52:07;;;;;;;23.05;20.55;;;;;;;;;;5415277;26;20345;-67
2024/04/14 01:54:33;;;;;;;21.52;19.23;;;;;;;;;;5415117;26;20000;-67
2024/04/14 01:56:58;;;;;;;28.83;19.08;;;;;;;;;;5414982;26;20004;-67
2024/04/14 01:59:24;;;;;;;22.13;19.60;;;;;;;;;;5414905;26;20446;-67
2024/04/14 02:01:50;;;;;;;22.17;19.70;;;;;;;;;;5414813;26;20014;-67
2024/04/14 02:04:16;;;;;;;24.92;21.02;;;;;;;;;;5414481;26;20405;-67
2024/04/14 02:06:42;;;;;;;21.48;19.33;;;;;;;;;;5414964;26;19999;-67
2024/04/14 02:09:09;;;;;;;21.05;18.90;;;;;;;;;;5415101;26;20406;-67
2024/04/14 02:11:35;;;;;;;22.90;19.42;;;;;;;;;;5414467;26;20449;-67
2024/04/14 02:14:01;;;;;;;24.17;19.33;;;;;;;;;;5414215;26;20014;-67
2024/04/14 02:16:28;;;;;;;22.65;19.60;;;;;;;;;;5414325;26;20140;-66
2024/04/14 02:18:54;;;;;;;25.58;19.55;;;;;;;;;;5413987;26;20109;-66
2024/04/14 02:21:20;;;;;;;25.23;19.80;;;;;;;;;;5401395;26;20007;-66
2024/04/14 02:23:46;;;;;;;25.08;19.27;;;;;;;;;;5414294;26;20031;-66
2024/04/14 02:26:12;;;;;;;21.98;18.75;;;;;;;;;;5414219;26;20341;-67
2024/04/14 02:28:38;;;;;;;24.05;19.67;;;;;;;;;;5414284;26;20113;-66
2024/04/14 02:31:04;;;;;;;22.10;19.73;;;;;;;;;;5387456;26;19996;-66
2024/04/14 02:33:30;;;;;;;26.17;18.98;;;;;;;;;;5413929;26;20105;-67
2024/04/14 02:35:57;;;;;;;25.33;18.55;;;;;;;;;;5414240;26;19999;-67
2024/04/14 02:38:23;;;;;;;20.35;18.02;;;;;;;;;;5414015;26;20003;-67
2024/04/14 02:40:59;;;;;;;20.73;18.30;;;;;;;;;;5416206;26;20074;-66
2024/04/14 02:43:26;;;;;;;20.60;18.40;;;;;;;;;;5417050;26;20465;-67
2024/04/14 02:45:52;;;;;;;23.52;19.15;;;;;;;;;;5415846;26;20007;-67
2024/04/14 02:48:18;;;;;;;21.17;18.55;;;;;;;;;;5417516;26;20003;-67
2024/04/14 02:50:44;;;;;;;21.67;18.98;;;;;;;;;;5417382;26;20400;-67
2024/04/14 02:53:10;;;;;;;23.00;20.00;;;;;;;;;;5417501;26;20145;-66
2024/04/14 02:55:37;;;;;;;21.77;18.02;;;;;;;;;;5417708;26;20349;-66
2024/04/14 02:58:03;;;;;;;22.88;18.95;;;;;;;;;;5418160;26;20015;-67
2024/04/14 03:00:29;;;;;;;26.65;19.30;;;;;;;;;;5408497;26;20003;-67
2024/04/14 03:03:02;;;;;;;21.48;19.17;;;;;;;;;;5402877;26;20010;-66
2024/04/14 03:05:28;;;;;;;20.98;18.65;;;;;;;;;;5418533;26;20022;-66
2024/04/14 03:07:54;;;;;;;25.73;18.95;;;;;;;;;;5393410;26;20000;-67
2024/04/14 03:10:20;;;;;;;25.70;19.73;;;;;;;;;;5406768;26;20431;-66
2024/04/14 03:12:46;;;;;;;21.98;18.90;;;;;;;;;;5416330;26;20403;-66
2024/04/14 03:15:12;;;;;;;21.77;19.50;;;;;;;;;;5416577;26;19999;-66
2024/04/14 03:17:39;;;;;;;22.08;19.67;;;;;;;;;;5399127;26;20018;-66
2024/04/14 03:20:05;;;;;;;22.02;19.30;;;;;;;;;;5386819;26;20011;-66
2024/04/14 03:22:31;;;;;;;25.80;19.10;;;;;;;;;;5408649;26;20423;-66
2024/04/14 03:24:57;;;;;;;22.73;19.52;;;;;;;;;;5407092;26;20016;-66
2024/04/14 03:27:23;;;;;;;21.45;19.17;;;;;;;;;;5415667;26;20003;-66
2024/04/14 03:29:50;;;;;;;22.30;19.38;;;;;;;;;;5417979;26;20433;-66
2024/04/14 03:32:16;;;;;;;21.67;18.70;;;;;;;;;;5415134;26;19995;-66
2024/04/14 03:34:44;;;;;;;22.70;20.13;;;;;;;;;;5412516;26;20137;-67
2024/04/14 03:37:10;;;;;;;21.92;19.33;;;;;;;;;;5417616;26;20003;-67
2024/04/14 03:39:37;;;;;;;24.25;19.55;;;;;;;;;;5417594;26;20073;-67
2024/04/14 03:42:03;;;;;;;26.05;20.10;;;;;;;;;;5417613;26;20014;-67
2024/04/14 03:44:29;;;;;;;21.92;18.40;;;;;;;;;;5416270;26;20011;-67
2024/04/14 03:46:55;;;;;;;23.65;18.20;;;;;;;;;;5417644;26;20039;-67
2024/04/14 03:49:21;;;;;;;23.48;19.70;;;;;;;;;;5417557;26;20014;-67
2024/04/14 03:51:47;;;;;;;20.83;18.17;;;;;;;;;;5416652;26;20000;-67
2024/04/14 03:54:13;;;;;;;20.88;18.67;;;;;;;;;;5417132;26;20004;-67
2024/04/14 03:56:39;;;;;;;21.75;19.55;;;;;;;;;;5417952;26;19999;-67
2024/04/14 03:59:06;;;;;;;24.63;19.17;;;;;;;;;;5417441;26;20015;-67
2024/04/14 04:01:32;;;;;;;23.50;20.42;;;;;;;;;;5417450;26;20000;-67
2024/04/14 04:03:58;;;;;;;23.63;19.58;;;;;;;;;;5415413;26;20028;-67
2024/04/14 04:06:24;;;;;;;24.17;20.75;;;;;;;;;;5417270;26;20472;-67
2024/04/14 04:08:50;;;;;;;24.13;20.05;;;;;;;;;;5417139;26;20004;-67
2024/04/14 04:11:16;;;;;;;22.00;19.63;;;;;;;;;;5416897;26;19999;-66
2024/04/14 04:13:42;;;;;;;22.30;19.25;;;;;;;;;;5416932;26;20004;-66
2024/04/14 04:16:08;;;;;;;22.40;19.30;;;;;;;;;;5417130;26;20003;-67
2024/04/14 04:18:35;;;;;;;21.67;19.30;;;;;;;;;;5416804;26;20010;-66
2024/04/14 04:21:02;;;;;;;24.02;19.83;;;;;;;;;;5417046;26;20072;-67
2024/04/14 04:23:28;;;;;;;26.13;20.48;;;;;;;;;;5417564;26;20003;-67
2024/04/14 04:25:56;;;;;;;22.90;19.80;;;;;;;;;;5417253;26;20084;-67
2024/04/14 04:28:22;;;;;;;25.05;20.23;;;;;;;;;;5416549;26;20047;-67
2024/04/14 04:30:48;;;;;;;26.15;20.20;;;;;;;;;;5415517;26;20031;-67
2024/04/14 04:33:14;;;;;;;23.30;20.48;;;;;;;;;;5412905;26;20040;-67
2024/04/14 04:35:40;;;;;;;27.40;21.15;;;;;;;;;;5417258;26;20014;-67
2024/04/14 04:38:06;;;;;;;24.15;19.90;;;;;;;;;;5416479;26;20003;-67
2024/04/14 04:40:32;;;;;;;22.60;20.17;;;;;;;;;;5416336;26;19999;-67
2024/04/14 04:42:58;;;;;;;25.88;20.35;;;;;;;;;;5416626;26;20445;-67
2024/04/14 04:45:24;;;;;;;27.67;23.00;;;;;;;;;;5416962;26;20018;-67
2024/04/14 04:47:50;;;;;;;23.75;21.20;;;;;;;;;;5416748;26;19999;-67
2024/04/14 04:50:16;;;;;;;28.08;23.10;;;;;;;;;;5416347;26;20023;-67
2024/04/14 04:52:42;;;;;;;25.50;22.42;;;;;;;;;;5414653;26;20000;-67
2024/04/14 04:55:08;;;;;;;26.55;22.92;;;;;;;;;;5416456;26;20014;-67
2024/04/14 04:57:34;;;;;;;29.40;23.27;;;;;;;;;;5416146;26;20384;-67
2024/04/14 05:00:00;;;;;;;27.50;22.95;;;;;;;;;;5416437;26;20008;-67
2024/04/14 05:02:26;;;;;;;27.83;23.02;;;;;;;;;;5413299;26;20016;-67
2024/04/14 05:04:55;;;;;;;27.20;23.48;;;;;;;;;;5416698;26;20011;-67
2024/04/14 05:07:21;;;;;;;28.13;23.30;;;;;;;;;;5416571;26;20047;-67
2024/04/14 05:09:52;;;;;;;26.08;22.70;;;;;;;;;;5416478;26;20014;-67
2024/04/14 05:12:18;;;;;;;25.77;22.48;;;;;;;;;;5416143;26;20015;-67
2024/04/14 05:14:44;;;;;;;26.35;23.05;;;;;;;;;;5416469;26;20084;-66
2024/04/14 05:17:10;;;;;;;26.15;23.10;;;;;;;;;;5416074;26;20018;-66
2024/04/14 05:19:36;;;;;;;28.88;23.73;;;;;;;;;;5416116;26;20015;-66
2024/04/14 05:22:02;;;;;;;28.08;23.00;;;;;;;;;;5416293;26;20431;-66
2024/04/14 05:24:28;;;;;;;28.30;23.58;;;;;;;;;;5415482;26;19995;-66
2024/04/14 05:26:54;;;;;;;34.47;27.77;;;;;;;;;;5415960;26;20010;-63
2024/04/14 05:29:20;;;;;;;37.67;31.20;;;;;;;;;;5391297;26;20004;-63
2024/04/14 05:31:46;;;;;;;39.95;33.58;;;;;;;;;;5415854;26;20003;-67
2024/04/14 05:34:12;;;;;;;47.63;39.72;;;;;;;;;;5415925;26;20003;-67
2024/04/14 05:36:38;;;;;;;50.58;42.80;;;;;;;;;;5416307;26;20079;-67
2024/04/14 05:39:04;;;;;;;51.00;41.72;;;;;;;;;;5390631;26;20338;-67
2024/04/14 05:41:30;;;;;;;59.45;48.72;;;;;;;;;;5415650;26;20014;-67
2024/04/14 05:43:56;;;;;;;53.10;46.10;;;;;;;;;;5415829;26;20076;-67
2024/04/14 05:46:22;;;;;;;56.88;48.67;;;;;;;;;;5415751;26;20000;-67
2024/04/14 05:48:48;;;;;;;62.42;50.90;;;;;;;;;;5415688;26;20004;-67
2024/04/14 05:51:14;;;;;;;59.60;50.90;;;;;;;;;;5404235;26;20012;-66
2024/04/14 05:53:41;;;;;;;60.20;51.42;;;;;;;;;;5415908;26;20399;-67
2024/04/14 05:56:07;;;;;;;62.85;51.90;;;;;;;;;;5416066;26;20008;-67
2024/04/14 05:58:33;;;;;;;60.58;49.53;;;;;;;;;;5415667;26;20000;-68
2024/04/14 06:01:03;;;;;;;62.47;53.97;;;;;;;;;;5415667;26;20076;-67
2024/04/14 06:03:29;;;;;;;68.55;58.72;;;;;;;;;;5415423;26;20050;-67
2024/04/14 06:05:55;;;;;;;69.30;58.92;;;;;;;;;;5413683;26;20011;-68
2024/04/14 06:08:21;;;;;;;68.13;57.53;;;;;;;;;;5415443;26;20413;-68
2024/04/14 06:10:47;;;;;;;68.72;58.08;;;;;;;;;;5415311;26;20010;-66
2024/04/14 06:13:13;;;;;;;66.47;54.95;;;;;;;;;;5415534;26;20004;-66
2024/04/14 06:15:40;;;;;;;65.50;56.80;;;;;;;;;;5407326;26;20008;-66
2024/04/14 06:18:06;;;;;;;68.40;57.72;;;;;;;;;;5398486;26;20321;-66
2024/04/14 06:20:34;;;;;;;62.85;55.33;;;;;;;;;;5414854;26;20404;-66
2024/04/14 06:23:00;;;;;;;59.45;52.58;;;;;;;;;;5410248;26;20071;-66
2024/04/14 06:25:26;;;;;;;58.60;52.15;;;;;;;;;;5415538;26;20008;-67
2024/04/14 06:27:52;;;;;;;60.20;50.38;;;;;;;;;;5415494;26;20072;-66
2024/04/14 06:30:18;;;;;;;60.25;48.92;;;;;;;;;;5415264;26;20003;-67
2024/04/14 06:32:44;;;;;;;66.07;56.45;;;;;;;;;;5415046;26;20003;-67
2024/04/14 06:35:10;;;;;;;65.55;53.85;;;;;;;;;;5413509;26;20000;-66
2024/04/14 06:37:36;;;;;;;64.88;54.45;;;;;;;;;;5415268;26;20123;-67
2024/04/14 06:40:03;;;;;;;60.38;51.00;;;;;;;;;;5407492;26;20032;-66
2024/04/14 06:42:35;;;;;;;59.90;50.83;;;;;;;;;;5408370;26;20011;-66
2024/04/14 06:45:01;;;;;;;61.40;52.38;;;;;;;;;;5414582;26;20018;-66
2024/04/14 06:47:27;;;;;;;63.67;51.42;;;;;;;;;;5414331;26;20004;-66
2024/04/14 06:49:53;;;;;;;59.25;51.95;;;;;;;;;;5414842;26;20081;-67
2024/04/14 06:52:19;;;;;;;58.75;49.90;;;;;;;;;;5412765;26;20445;-66
2024/04/14 06:54:45;;;;;;;61.97;54.33;;;;;;;;;;5414907;26;20014;-66
2024/04/14 06:57:11;;;;;;;60.35;52.08;;;;;;;;;;5414363;26;20012;-66
2024/04/14 06:59:37;;;;;;;60.58;52.63;;;;;;;;;;5414318;26;19999;-66
2024/04/14 07:02:34;;;;;;;60.85;50.83;;;;;;;;;;5417312;26;20003;-67
2024/04/14 07:05:00;;;;;;;58.90;50.63;;;;;;;;;;5404564;26;19999;-65
2024/04/14 07:07:26;;;;;;;59.88;51.17;;;;;;;;;;5413962;26;20449;-65
2024/04/14 07:09:52;;;;;;;57.55;48.50;;;;;;;;;;5413604;26;20008;-65
2024/04/14 07:12:18;;;;;;;52.85;47.13;;;;;;;;;;5414378;26;20060;-65
2024/04/14 07:14:44;;;;;;;57.17;48.75;;;;;;;;;;5413752;26;20003;-65
2024/04/14 07:17:10;;;;;;;51.15;45.60;;;;;;;;;;5414486;26;20074;-65
2024/04/14 07:19:36;;;;;;;51.58;45.88;;;;;;;;;;5414096;26;20073;-65
2024/04/14 07:22:02;;;;;;;49.83;43.58;;;;;;;;;;5414632;26;20003;-65
2024/04/14 07:24:28;;;;;;;53.03;47.15;;;;;;;;;;5414188;26;20342;-65
2024/04/14 07:26:54;;;;;;;55.40;47.60;;;;;;;;;;5416729;26;20014;-65
2024/04/14 07:29:20;;;;;;;55.03;47.60;;;;;;;;;;5417447;26;20080;-65
2024/04/14 07:31:46;;;;;;;58.15;50.28;;;;;;;;;;5417571;26;19999;-65
2024/04/14 07:34:12;;;;;;;55.80;48.55;;;;;;;;;;5417690;26;20330;-67
2024/04/14 07:36:39;;;;;;;47.53;42.10;;;;;;;;;;5399718;26;20062;-57
2024/04/14 07:39:05;;;;;;;50.67;45.25;;;;;;;;;;5403935;26;20350;-58
2024/04/14 07:41:30;;;;;;;50.30;43.40;;;;;;;;;;5408046;26;19999;-53
2024/04/14 07:43:56;;;;;;;48.38;42.50;;;;;;;;;;5409704;26;20012;-59
2024/04/14 07:46:27;;;;;;;53.55;45.63;;;;;;;;;;5410997;26;20035;-59
2024/04/14 07:48:53;;;;;;;56.45;46.25;;;;;;;;;;5417511;26;19999;-59
2024/04/14 07:51:19;;;;;;;52.10;45.58;;;;;;;;;;5415818;26;20457;-54
2024/04/14 07:53:47;;;;;;;47.47;41.95;;;;;;;;;;5417536;26;20003;-54
2024/04/14 07:56:13;;;;;;;46.85;41.47;;;;;;;;;;5392852;26;20014;-52
2024/04/14 07:58:39;;;;;;;49.85;42.80;;;;;;;;;;5417234;26;20481;-53
2024/04/14 08:01:05;;;;;;;48.63;42.03;;;;;;;;;;5416744;26;20003;-54
2024/04/14 08:03:31;;;;;;;47.65;42.20;;;;;;;;;;5417081;26;20010;-54
2024/04/14 08:05:57;;;;;;;46.88;40.05;;;;;;;;;;5412980;26;20081;-51
2024/04/14 08:08:23;;;;;;;44.92;40.20;;;;;;;;;;5417225;26;20011;-52
2024/04/14 08:10:49;;;;;;;51.42;42.05;;;;;;;;;;5416908;26;20004;-50
2024/04/14 08:13:15;;;;;;;49.13;42.03;;;;;;;;;;5417059;26;20003;-53
2024/04/14 08:15:41;;;;;;;51.88;42.05;;;;;;;;;;5417060;26;20445;-51
2024/04/14 08:18:07;;;;;;;46.22;41.10;;;;;;;;;;5416519;26;20464;-50
2024/04/14 08:20:33;;;;;;;45.85;40.75;;;;;;;;;;5416080;26;20494;-54
2024/04/14 08:22:59;;;;;;;46.65;40.00;;;;;;;;;;5416279;26;20003;-53
2024/04/14 08:25:25;;;;;;;42.75;38.05;;;;;;;;;;5417232;26;20008;-50
2024/04/14 08:27:51;;;;;;;43.67;37.05;;;;;;;;;;5415296;26;20076;-47
2024/04/14 08:30:17;;;;;;;43.13;36.88;;;;;;;;;;5401661;26;20015;-50
2024/04/14 08:32:43;;;;;;;42.00;37.25;;;;;;;;;;5415209;26;19999;-49
2024/04/14 08:35:09;;;;;;;43.08;35.78;;;;;;;;;;5413167;26;19996;-49
2024/04/14 08:37:35;;;;;;;40.28;34.72;;;;;;;;;;5416846;26;19996;-49
2024/04/14 08:40:02;;;;;;;38.92;34.78;;;;;;;;;;5416944;26;20007;-54
2024/04/14 08:42:29;;;;;;;38.67;34.50;;;;;;;;;;5417071;26;19999;-54
2024/04/14 08:44:56;;;;;;;38.45;34.30;;;;;;;;;;5414970;26;20010;-51
2024/04/14 08:47:23;;;;;;;37.92;34.03;;;;;;;;;;5404141;26;20012;-50
2024/04/14 08:49:50;;;;;;;41.50;35.85;;;;;;;;;;5421086;26;20022;-49
2024/04/14 08:52:16;;;;;;;39.95;35.72;;;;;;;;;;5416845;26;20055;-50
2024/04/14 08:54:43;;;;;;;38.65;34.55;;;;;;;;;;5408347;26;20019;-51
2024/04/14 08:57:10;;;;;;;38.75;34.33;;;;;;;;;;5400247;26;20469;-50
2024/04/14 08:59:40;;;;;;;42.58;35.83;;;;;;;;;;5416077;26;20414;-49
2024/04/14 09:02:08;;;;;;;38.67;34.03;;;;;;;;;;5414847;26;20017;-50
2024/04/14 09:04:34;;;;;;;37.83;33.65;;;;;;;;;;5412319;26;19999;-53
2024/04/14 09:07:00;;;;;;;38.80;33.40;;;;;;;;;;5418701;26;20007;-51
2024/04/14 09:09:26;;;;;;;41.70;35.83;;;;;;;;;;5411853;26;20010;-51
2024/04/14 09:11:58;;;;;;;42.92;37.85;;;;;;;;;;5410267;26;20480;-53
2024/04/14 09:14:24;;;;;;;40.25;35.92;;;;;;;;;;5396046;26;20000;-54
2024/04/14 09:16:51;;;;;;;42.22;33.70;;;;;;;;;;5415163;26;20004;-49
2024/04/14 09:19:21;;;;;;;37.72;32.83;;;;;;;;;;5396454;26;20019;-50
2024/04/14 09:21:47;;;;;;;36.05;31.58;;;;;;;;;;5410579;26;20334;-50
2024/04/14 09:24:13;;;;;;;36.80;32.83;;;;;;;;;;5412115;26;20466;-50
2024/04/14 09:26:39;;;;;;;41.58;34.83;;;;;;;;;;5433413;26;19999;-53
2024/04/14 09:29:05;;;;;;;41.30;33.50;;;;;;;;;;5416416;26;20027;-50
2024/04/14 09:31:32;;;;;;;37.78;33.75;;;;;;;;;;5416276;26;20006;-54
2024/04/14 09:33:58;;;;;;;40.58;36.15;;;;;;;;;;5389911;26;20007;-50
2024/04/14 09:36:25;;;;;;;39.38;35.13;;;;;;;;;;5412796;26;20022;-51
2024/04/14 09:38:53;;;;;;;35.15;31.08;;;;;;;;;;5407220;26;19996;-51
2024/04/14 09:41:19;;;;;;;34.40;29.42;;;;;;;;;;5404358;26;20076;-51
2024/04/14 09:43:59;;;;;;;32.28;28.90;;;;;;;;;;5416056;26;20003;-53
2024/04/14 09:46:26;;;;;;;39.13;32.05;;;;;;;;;;5407266;26;20007;-51
2024/04/14 09:48:52;;;;;;;31.20;27.95;;;;;;;;;;5414776;26;20010;-52
2024/04/14 09:51:18;;;;;;;31.60;25.55;;;;;;;;;;5413866;26;20090;-51
2024/04/14 09:53:45;;;;;;;30.45;27.17;;;;;;;;;;5415457;26;20306;-50
2024/04/14 09:56:12;;;;;;;27.17;24.23;;;;;;;;;;5413670;26;19999;-52
2024/04/14 09:58:38;;;;;;;26.25;23.48;;;;;;;;;;5409166;26;20137;-51
2024/04/14 10:01:11;;;;;;;27.52;24.20;;;;;;;;;;5415332;26;20010;-52
2024/04/14 10:03:37;;;;;;;32.72;28.33;;;;;;;;;;5415596;26;20007;-51
2024/04/14 10:06:04;;;;;;;33.47;29.88;;;;;;;;;;5411372;26;19995;-52
2024/04/14 10:08:34;;;;;;;34.88;29.60;;;;;;;;;;5416605;26;20381;-50
2024/04/14 10:11:02;;;;;;;35.78;31.95;;;;;;;;;;5408774;26;20421;-52
2024/04/14 10:13:29;;;;;;;30.80;26.55;;;;;;;;;;5415501;26;20003;-49
2024/04/14 10:15:58;;;;;;;29.48;25.42;;;;;;;;;;5403426;26;20000;-53
2024/04/14 10:18:25;;;;;;;26.65;23.88;;;;;;;;;;5407532;26;20010;-50
2024/04/14 10:20:51;;;;;;;26.50;23.67;;;;;;;;;;5405060;26;20007;-52
2024/04/14 10:23:18;;;;;;;30.05;22.17;;;;;;;;;;5415518;26;19996;-49
2024/04/14 10:25:50;;;;;;;22.65;20.42;;;;;;;;;;5408263;26;19999;-49
2024/04/14 10:28:20;;;;;;;22.80;19.73;;;;;;;;;;5414611;26;20371;-50
2024/04/14 10:30:48;;;;;;;23.15;20.05;;;;;;;;;;5414967;26;20463;-50
2024/04/14 10:33:21;;;;;;;32.17;21.20;;;;;;;;;;5414843;26;20007;-54
2024/04/14 10:35:47;;;;;;;20.77;18.35;;;;;;;;;;5414212;26;20071;-51
2024/04/14 10:38:22;;;;;;;25.20;21.92;;;;;;;;;;5413741;26;20027;-49
2024/04/14 10:40:48;;;;;;;23.58;21.15;;;;;;;;;;5413385;26;20015;-50
2024/04/14 10:43:14;;;;;;;24.08;20.58;;;;;;;;;;5412495;26;20004;-50
2024/04/14 10:45:40;;;;;;;21.90;19.55;;;;;;;;;;5415235;26;20033;-52
2024/04/14 10:48:07;;;;;;;21.90;18.38;;;;;;;;;;5414746;26;20011;-53
2024/04/14 10:50:33;;;;;;;23.52;19.25;;;;;;;;;;5414543;26;20103;-52
2024/04/14 10:52:59;;;;;;;20.05;18.08;;;;;;;;;;5406208;26;20287;-52
2024/04/14 10:55:25;;;;;;;22.35;17.63;;;22.00;99.90;;;;;;5412623;26;20006;-55
2024/04/14 10:57:51;;;;;;;21.83;18.67;;;24.20;99.90;;;;;;5414094;26;20068;-50
2024/04/14 11:00:17;;;;;;;24.48;18.77;;;24.20;99.90;;;;;;5398872;26;20127;-50
2024/04/14 11:02:44;;;;;;;21.10;16.95;;;24.30;99.90;;;;;;5410487;26;20010;-53
2024/04/14 11:05:10;;;;;;;19.83;17.73;;;24.30;99.90;;;;;;5415953;26;20002;-52
2024/04/14 11:07:36;;;;;;;23.65;19.80;;;24.30;99.90;;;;;;5417723;26;20483;-52
2024/04/14 11:10:03;;;;;;;22.73;19.40;;;24.40;99.90;;;;;;5409064;26;20007;-52
2024/04/14 11:12:29;;;;;;;20.15;17.55;;;24.40;99.90;;;;;;5402605;26;20004;-49
2024/04/14 11:14:55;;;;;;;20.52;16.33;;;24.40;99.90;;;;;;5417489;26;20003;-50
2024/04/14 11:17:22;;;;;;;20.45;16.67;;;24.60;99.90;;;;;;5399084;26;20001;-50
2024/04/14 11:19:47;;;;;;;22.63;17.48;;;24.60;99.90;;;;;;5400913;26;20000;-52
2024/04/14 11:22:17;;;;;;;17.83;15.93;;;24.80;99.90;;;;;;5382330;26;20073;-54
2024/04/14 11:24:42;;;;;;;21.00;17.75;;;24.80;99.90;;;;;;5405601;26;20031;-50
2024/04/14 11:27:08;;;;;;;19.85;17.75;;;24.90;99.90;;;;;;5399469;26;20014;-51
2024/04/14 11:29:34;;;;;;;20.88;18.25;;;25.00;99.90;;;;;;5401919;26;20007;-50
2024/04/14 11:32:07;;;;;;;20.13;18.02;;;25.10;99.90;;;;;;5415534;26;20066;-51
2024/04/14 11:34:33;;;;;;;21.70;18.55;;;25.20;99.90;;;;;;5424915;26;19995;-53
2024/04/14 11:36:59;;;;;;;20.08;17.42;;;25.20;99.90;;;;;;5417343;26;20006;-55
2024/04/14 11:39:25;;;;;;;20.95;17.88;;;25.20;99.90;;;;;;5417249;26;20006;-51
2024/04/14 11:41:50;;;;;;;21.98;19.67;;;25.40;99.90;;;;;;5417548;26;20006;-50
2024/04/14 11:44:16;;;;;;;23.48;19.77;;;;;;;;;;5415647;26;20023;-55
2024/04/14 11:46:42;;;;;;;21.92;19.15;;;25.50;99.90;;;;;;5400092;26;20016;-55
2024/04/14 11:49:08;;;;;;;18.42;14.65;;;25.60;99.90;;;;;;5415023;26;19996;-53
2024/04/14 11:51:33;;;;;;;16.85;14.77;;;25.70;99.90;;;;;;5412618;26;19999;-54
2024/04/14 11:53:59;;;;;;;16.38;13.45;;;25.90;99.90;;;;;;5408701;26;20015;-52
2024/04/14 11:56:24;;;;;;;17.65;11.55;;;26.00;99.90;;;;;;5415844;26;20011;-54
2024/04/14 11:58:50;;;;;;;11.82;10.60;;;;;;;;;;5417276;26;20011;-53
2024/04/14 12:01:16;;;;;;;12.13;9.45;;;;;;;;;;5406861;26;20014;-53
2024/04/14 12:03:42;;;;;;;11.07;9.10;;;;;;;;;;5411082;26;20015;-54
2024/04/14 12:06:08;;;;;;;11.85;8.38;;;;;;;;;;5406528;26;20077;-52
2024/04/14 12:08:34;;;;;;;9.30;7.00;;;;;;;;;;5412074;26;20000;-51
2024/04/14 12:11:00;;;;;;;10.63;8.40;;;;;;;;;;5425003;26;19996;-54
2024/04/14 12:13:26;;;;;;;12.23;9.63;;;26.00;99.90;;;;;;5416861;26;19995;-53
2024/04/14 12:15:52;;;;;;;10.93;8.45;;;;;;;;;;5417535;26;20027;-55
2024/04/14 12:18:18;;;;;;;11.57;8.65;;;;;;;;;;5416323;26;19999;-56
2024/04/14 12:20:44;;;;;;;8.85;7.95;;;;;;;;;;5415557;26;19996;-55
2024/04/14 12:23:10;;;;;;;11.25;7.85;;;;;;;;;;5416854;26;19999;-54
2024/04/14 12:25:36;;;;;;;9.88;6.55;;;;;;;;;;5415800;26;20326;-56
2024/04/14 12:28:02;;;;;;;11.35;8.38;;;;;;;;;;5403418;26;20000;-53
2024/04/14 12:30:28;;;;;;;11.18;8.73;;;;;;;;;;5408888;26;20074;-56
2024/04/14 12:32:54;;;;;;;9.38;7.70;;;;;;;;;;5396752;26;20011;-56
2024/04/14 12:35:20;;;;;;;10.38;7.40;;;;;;;;;;5416754;26;20012;-50
2024/04/14 12:37:46;;;;;;;8.95;7.85;;;;;;;;;;5417015;26;19995;-56
2024/04/14 12:40:12;;;;;;;10.10;8.05;;;;;;;;;;5413066;26;20438;-56
2024/04/14 12:42:38;;;;;;;8.60;7.35;;;;;;;;;;5416543;26;19999;-52
2024/04/14 12:45:04;;;;;;;8.38;7.53;;;;;;;;;;5416703;26;20039;-55
2024/04/14 12:47:30;;;;;;;9.82;7.50;;;;;;;;;;5414427;26;20006;-54
2024/04/14 12:49:56;;;;;;;9.55;8.00;;;;;;;;;;5413266;26;19999;-55
2024/04/14 12:52:22;;;;;;;10.63;9.55;;;;;;;;;;5405972;26;20078;-57
2024/04/14 12:54:48;;;;;;;9.38;8.35;;;;;;;;;;5401144;26;20003;-51
2024/04/14 12:57:14;;;;;;;8.70;7.80;;;;;;;;;;5416720;26;20015;-53
2024/04/14 12:59:40;;;;;;;9.80;7.97;;;;;;;;;;5415810;26;20460;-55
2024/04/14 13:02:07;;;;;;;10.90;7.25;;;;;;;;;;5394546;26;20414;-55
2024/04/14 13:04:33;;;;;;;7.97;6.63;;;;;;;;;;5426124;26;20011;-52
2024/04/14 13:06:59;;;;;;;7.85;6.85;;;;;;;;;;5396038;26;19997;-54
2024/04/14 13:09:25;;;;;;;8.77;6.85;;;;;;;;;;5406004;26;20309;-50
2024/04/14 13:11:50;;;;;;;8.13;6.75;;;;;;;;;;5397946;26;19999;-53
2024/04/14 13:14:16;;;;;;;9.90;6.07;;;;;;;;;;5414263;26;20035;-53
2024/04/14 13:16:42;;;;;;;8.52;6.80;;;;;;;;;;5417204;26;20421;-51
2024/04/14 13:19:08;;;;;;;6.93;6.35;;;;;;;;;;5411969;26;19995;-54
2024/04/14 13:21:38;;;;;;;7.35;6.65;;;;;;;;;;5416465;26;20003;-52
2024/04/14 13:24:04;;;;;;;7.70;6.22;;;;;;;;;;5402294;26;20007;-51
2024/04/14 13:26:32;;;;;;;6.32;5.72;;;;;;;;;;5416222;26;20022;-55
2024/04/14 13:28:58;;;;;;;9.18;6.05;;;;;;;;;;5414286;26;20118;-55
2024/04/14 13:31:24;;;;;;;8.15;6.25;;;;;;;;;;5416068;26;20015;-54
2024/04/14 13:33:50;;;;;;;7.97;6.32;;;;;;;;;;5416552;26;20325;-53
2024/04/14 13:36:16;;;;;;;6.68;6.07;;;;;;;;;;5416085;26;20014;-54
2024/04/14 13:38:42;;;;;;;11.60;6.72;;;;;;;;;;5407773;26;20000;-54
2024/04/14 13:41:08;;;;;;;7.38;6.28;;;;;;;;;;5401663;26;20310;-53
2024/04/14 13:43:34;;;;;;;7.95;5.95;;;;;;;;;;5415897;26;20018;-53
2024/04/14 13:46:00;;;;;;;9.77;5.80;;;;;;;;;;5403349;26;20073;-54
2024/04/14 13:48:26;;;;;;;9.73;6.05;;;;;;;;;;5404637;26;20011;-51
2024/04/14 13:50:52;;;;;;;7.57;6.63;;;;;;;;;;5416477;26;20391;-54
2024/04/14 13:53:18;;;;;;;9.65;6.65;;;;;;;;;;5415677;26;20000;-53
2024/04/14 13:55:44;;;;;;;8.15;6.97;;;;;;;;;;5416031;26;20003;-54
2024/04/14 13:58:11;;;;;;;9.70;6.82;;;;;;;;;;5389538;26;20000;-51
2024/04/14 14:00:39;;;;;;;6.63;6.03;;;;;;;;;;5421725;26;19999;-51
2024/04/14 14:03:05;;;;;;;7.60;6.28;;;;;;;;;;5416220;26;20082;-52
2024/04/14 14:05:31;;;;;;;7.20;6.47;;;;;;;;;;5405439;26;20404;-56
2024/04/14 14:07:59;;;;;;;6.72;6.00;;;;;;;;;;5416047;26;20003;-56
2024/04/14 14:10:25;;;;;;;7.80;7.00;;;;;;;;;;5415862;26;20011;-57
2024/04/14 14:12:51;;;;;;;8.30;7.50;;;;;;;;;;5415786;26;20040;-51